createdAt,value
2023-05-18T00:02:26.829Z,98965.02
2023-05-18T00:04:55.281Z,98966.45
2023-05-18T00:07:23.241Z,98967.48
2023-05-18T00:09:51.190Z,98968.32
2023-05-18T00:12:19.344Z,98968.26
2023-05-18T00:14:47.640Z,98968.62
2023-05-18T00:17:16.203Z,98968.57
2023-05-18T00:19:46.985Z,98967.64
2023-05-18T00:22:18.679Z,98967.96
2023-05-18T00:24:47.619Z,98968.35
2023-05-18T00:27:15.637Z,98966.50
2023-05-18T00:29:43.567Z,98965.99
2023-05-18T00:32:13.276Z,98967.98
2023-05-18T00:34:41.350Z,98968.41
2023-05-18T00:37:09.140Z,98972.16
2023-05-18T00:39:37.065Z,98975.60
2023-05-18T00:42:05.541Z,98974.80
2023-05-18T00:44:33.667Z,98974.16
2023-05-18T00:47:02.262Z,98972.65
2023-05-18T00:49:30.217Z,98971.94
2023-05-18T00:51:58.441Z,98976.48
2023-05-18T00:54:26.840Z,98975.15
2023-05-18T00:56:54.857Z,98979.02
2023-05-18T00:59:22.929Z,98982.17
2023-05-18T01:01:51.526Z,98983.73
2023-05-18T01:04:21.821Z,98986.98
2023-05-18T01:06:50.121Z,98987.10
2023-05-18T01:09:18.495Z,98990.19
2023-05-18T01:11:58.637Z,98991.45
2023-05-18T01:14:52.961Z,98990.06
2023-05-18T01:17:45.452Z,98995.23
2023-05-18T01:20:30.101Z,99000.33
2023-05-18T01:23:52.598Z,98998.61
2023-05-18T01:26:30.075Z,99001.10
2023-05-18T01:29:00.969Z,99006.54
2023-05-18T01:31:29.146Z,99010.64
2023-05-18T01:33:57.398Z,99015.15
2023-05-18T01:36:25.318Z,99019.17
2023-05-18T01:38:56.341Z,99020.58
2023-05-18T01:41:26.832Z,99023.15
2023-05-18T01:44:02.052Z,99020.05
2023-05-18T01:46:43.771Z,99022.42
2023-05-18T01:49:56.936Z,99020.55
2023-05-18T01:52:58.281Z,99029.09
2023-05-18T01:55:30.166Z,99028.91
2023-05-18T01:58:01.093Z,99030.31
2023-05-18T02:00:29.422Z,99030.38
2023-05-18T02:02:57.902Z,99033.90
2023-05-18T02:05:25.926Z,99029.45
2023-05-18T02:07:54.104Z,99027.02
2023-05-18T02:10:22.022Z,99027.99
2023-05-18T02:12:52.917Z,99029.10
2023-05-18T02:15:21.485Z,99027.64
2023-05-18T02:17:50.585Z,99029.70
2023-05-18T02:20:18.664Z,99031.52
2023-05-18T02:22:46.598Z,99034.08
2023-05-18T02:25:14.538Z,99035.65
2023-05-18T02:27:43.076Z,99034.25
2023-05-18T02:30:13.799Z,99037.89
2023-05-18T02:32:47.243Z,99043.67
2023-05-18T02:35:18.296Z,99041.27
2023-05-18T02:37:47.482Z,99046.55
2023-05-18T02:40:17.175Z,99046.02
2023-05-18T02:42:45.279Z,99045.67
2023-05-18T02:45:13.218Z,99046.17
2023-05-18T02:47:44.165Z,99044.62
2023-05-18T02:50:12.437Z,99050.31
2023-05-18T02:52:41.896Z,99050.46
2023-05-18T02:55:10.381Z,99048.26
2023-05-18T02:57:57.241Z,99048.86
2023-05-18T03:00:33.769Z,99051.96
2023-05-18T03:03:03.235Z,99050.10
2023-05-18T03:05:31.435Z,99053.05
2023-05-18T03:07:59.522Z,99056.98
2023-05-18T03:10:27.491Z,99062.15
2023-05-18T03:12:55.412Z,99063.59
2023-05-18T03:15:23.671Z,99065.91
2023-05-18T03:17:52.012Z,99068.85
2023-05-18T03:20:21.853Z,99068.77
2023-05-18T03:22:50.007Z,99068.02
2023-05-18T03:25:18.386Z,99069.21
2023-05-18T03:27:46.866Z,99072.77
2023-05-18T03:30:14.942Z,99074.27
2023-05-18T03:32:43.102Z,99074.93
2023-05-18T03:35:11.228Z,99076.86
2023-05-18T03:37:39.372Z,99083.13
2023-05-18T03:40:15.792Z,99085.47
2023-05-18T03:42:44.429Z,99086.63
2023-05-18T03:45:13.601Z,99089.08
2023-05-18T03:47:42.759Z,99092.00
2023-05-18T03:50:10.890Z,99095.64
2023-05-18T03:52:40.025Z,99098.35
2023-05-18T03:55:08.789Z,99103.29
2023-05-18T03:57:37.123Z,99104.37
2023-05-18T04:00:12.423Z,99108.16
2023-05-18T04:02:47.238Z,99103.56
2023-05-18T04:05:15.898Z,99105.80
2023-05-18T04:07:44.432Z,99105.95
2023-05-18T04:10:13.942Z,99108.05
2023-05-18T04:12:43.803Z,99110.45
2023-05-18T04:15:14.839Z,99115.94
2023-05-18T04:17:46.123Z,99114.27
2023-05-18T04:20:15.453Z,99118.96
2023-05-18T04:22:49.285Z,99118.96
2023-05-18T04:25:18.933Z,99121.18
2023-05-18T04:27:48.417Z,99122.80
2023-05-18T04:30:19.068Z,99123.79
2023-05-18T04:32:48.170Z,99130.23
2023-05-18T04:35:16.461Z,99127.80
2023-05-18T04:37:44.872Z,99129.01
2023-05-18T04:40:19.393Z,99132.80
2023-05-18T04:42:49.190Z,99136.49
2023-05-18T04:45:22.127Z,99134.95
2023-05-18T04:47:55.320Z,99136.09
2023-05-18T04:50:24.022Z,99135.09
2023-05-18T04:52:53.303Z,99136.20
2023-05-18T04:55:26.561Z,99137.54
2023-05-18T04:57:57.996Z,99139.66
2023-05-18T05:00:29.146Z,99132.08
2023-05-18T05:02:58.541Z,99135.76
2023-05-18T05:05:27.384Z,99137.36
2023-05-18T05:07:56.179Z,99136.46
2023-05-18T05:10:24.614Z,99136.14
2023-05-18T05:12:52.635Z,99139.73
2023-05-18T05:15:20.656Z,99141.40
2023-05-18T05:17:50.381Z,99148.35
2023-05-18T05:20:19.243Z,99145.67
2023-05-18T05:22:47.327Z,99147.91
2023-05-18T05:25:18.182Z,99147.52
2023-05-18T05:27:46.211Z,99149.85
2023-05-18T05:30:14.715Z,99146.01
2023-05-18T05:32:44.338Z,99151.80
2023-05-18T05:35:12.287Z,99156.80
2023-05-18T05:37:40.158Z,99157.13
2023-05-18T05:40:10.154Z,99159.58
2023-05-18T05:42:48.223Z,99159.98
2023-05-18T05:45:16.484Z,99165.30
2023-05-18T05:47:54.766Z,99164.39
2023-05-18T05:50:23.825Z,99167.11
2023-05-18T05:52:54.266Z,99166.48
2023-05-18T05:55:22.953Z,99166.94
2023-05-18T05:57:51.716Z,99162.42
2023-05-18T06:00:20.230Z,99170.01
2023-05-18T06:02:56.807Z,99170.52
2023-05-18T06:05:30.836Z,99175.44
2023-05-18T06:07:59.249Z,99177.96
2023-05-18T06:10:27.722Z,99182.21
2023-05-18T06:12:56.138Z,99181.86
2023-05-18T06:15:27.916Z,99185.39
2023-05-18T06:17:56.282Z,99183.05
2023-05-18T06:20:24.384Z,99186.06
2023-05-18T06:22:52.365Z,99190.49
2023-05-18T06:25:36.299Z,99189.23
2023-05-18T06:28:27.172Z,99194.36
2023-05-18T06:31:00.969Z,99194.97
2023-05-18T06:33:51.085Z,99199.64
2023-05-18T06:36:19.068Z,99201.68
2023-05-18T06:38:47.183Z,99205.05
2023-05-18T06:41:15.772Z,99203.20
2023-05-18T06:43:43.793Z,99202.21
2023-05-18T06:46:24.599Z,99204.86
2023-05-18T06:48:56.768Z,99202.80
2023-05-18T06:51:24.823Z,99206.13
2023-05-18T06:53:52.842Z,99207.16
2023-05-18T06:56:21.974Z,99205.14
2023-05-18T06:58:50.123Z,99207.48
2023-05-18T07:01:18.199Z,99209.90
2023-05-18T07:03:46.927Z,99210.27
2023-05-18T07:06:15.176Z,99212.08
2023-05-18T07:08:44.702Z,99214.15
2023-05-18T07:11:12.719Z,99215.23
2023-05-18T07:13:40.592Z,99213.11
2023-05-18T07:16:08.733Z,99210.09
2023-05-18T07:18:36.810Z,99217.39
2023-05-18T07:21:05.102Z,99217.70
2023-05-18T07:23:33.186Z,99222.98
2023-05-18T07:26:01.481Z,99222.77
2023-05-18T07:28:29.430Z,99234.51
2023-05-18T07:30:57.382Z,99229.76
2023-05-18T07:34:09.075Z,99232.72
2023-05-18T07:36:36.879Z,99234.70
2023-05-18T07:39:04.845Z,99238.67
2023-05-18T07:41:33.035Z,99239.23
2023-05-18T07:44:00.981Z,99239.23
2023-05-18T07:46:28.873Z,99244.69
2023-05-18T07:48:56.907Z,99245.26
2023-05-18T07:51:25.015Z,99242.12
2023-05-18T07:53:53.206Z,99247.11
2023-05-18T07:56:22.605Z,99246.75
2023-05-18T07:58:50.637Z,99248.42
2023-05-18T08:01:18.597Z,99244.52
2023-05-18T08:03:46.650Z,99245.61
2023-05-18T08:06:14.806Z,99239.71
2023-05-18T08:08:42.668Z,99239.88
2023-05-18T08:11:10.600Z,99244.78
2023-05-18T08:13:38.552Z,99244.98
2023-05-18T08:16:11.905Z,99248.55
2023-05-18T08:18:40.972Z,99249.48
2023-05-18T08:21:10.166Z,99250.98
2023-05-18T08:23:39.122Z,99251.06
2023-05-18T08:26:10.065Z,99251.99
2023-05-18T08:28:39.097Z,99249.27
2023-05-18T08:31:07.333Z,99247.40
2023-05-18T08:33:35.283Z,99247.82
2023-05-18T08:36:03.737Z,99251.34
2023-05-18T08:38:32.238Z,99250.39
2023-05-18T08:41:31.081Z,99255.46
2023-05-18T08:44:09.691Z,99250.55
2023-05-18T08:46:42.860Z,99249.73
2023-05-18T08:49:11.131Z,99247.28
2023-05-18T08:51:42.660Z,99248.73
2023-05-18T08:54:15.762Z,99247.58
2023-05-18T08:56:45.973Z,99251.02
2023-05-18T08:59:18.798Z,99253.60
2023-05-18T09:01:47.268Z,99252.79
2023-05-18T09:04:15.544Z,99253.91
2023-05-18T09:06:44.085Z,99250.08
2023-05-18T09:09:14.038Z,99251.52
2023-05-18T09:11:42.324Z,99250.02
2023-05-18T09:14:10.995Z,99252.70
2023-05-18T09:16:39.289Z,99249.88
2023-05-18T09:19:07.267Z,99250.95
2023-05-18T09:21:35.234Z,99251.45
2023-05-18T09:24:03.898Z,99245.60
2023-05-18T09:26:31.983Z,99240.61
2023-05-18T09:29:00.031Z,99253.73
2023-05-18T09:31:30.896Z,99254.66
2023-05-18T09:33:59.446Z,99257.50
2023-05-18T09:36:32.432Z,99261.60
2023-05-18T09:39:00.473Z,99256.71
2023-05-18T09:41:28.368Z,99263.23
2023-05-18T09:43:56.408Z,99260.45
2023-05-18T09:46:24.420Z,99260.37
2023-05-18T09:48:54.368Z,99257.11
2023-05-18T09:51:25.368Z,99258.88
2023-05-18T09:53:56.542Z,99257.91
2023-05-18T09:56:27.198Z,99260.13
2023-05-18T09:58:55.468Z,99256.36
2023-05-18T10:01:23.712Z,99254.50
2023-05-18T10:03:53.488Z,99255.30
2023-05-18T10:06:27.564Z,99251.48
2023-05-18T10:08:58.269Z,99251.48
2023-05-18T10:11:31.126Z,99254.36
2023-05-18T10:13:59.109Z,99254.42
2023-05-18T10:16:27.211Z,99256.23
2023-05-18T10:18:56.632Z,99256.46
2023-05-18T10:21:28.514Z,99257.73
2023-05-18T10:23:56.968Z,99253.45
2023-05-18T10:26:29.153Z,99259.58
2023-05-18T10:28:59.370Z,99260.26
2023-05-18T10:31:30.901Z,99259.17
2023-05-18T10:33:59.408Z,99257.15
2023-05-18T10:36:30.186Z,99257.14
2023-05-18T10:39:00.296Z,99252.18
2023-05-18T10:41:31.625Z,99250.50
2023-05-18T10:44:04.348Z,99251.36
2023-05-18T10:46:34.357Z,99254.47
2023-05-18T10:49:04.503Z,99248.94
2023-05-18T10:51:32.791Z,99247.23
2023-05-18T10:54:12.729Z,99244.53
2023-05-18T10:56:47.987Z,99249.44
2023-05-18T10:59:18.539Z,99244.71
2023-05-18T11:01:49.660Z,99237.33
2023-05-18T11:04:24.583Z,99246.46
2023-05-18T11:06:57.982Z,99243.94
2023-05-18T11:09:26.887Z,99244.54
2023-05-18T11:11:58.029Z,99247.77
2023-05-18T11:14:31.080Z,99247.92
2023-05-18T11:17:31.514Z,99243.92
2023-05-18T11:20:09.008Z,99254.30
2023-05-18T11:22:46.263Z,99250.42
2023-05-18T11:25:26.667Z,99249.98
2023-05-18T11:28:01.992Z,99247.85
2023-05-18T11:30:31.034Z,99242.86
2023-05-18T11:33:22.296Z,99249.86
2023-05-18T11:36:03.188Z,99248.89
2023-05-18T11:39:07.223Z,99254.30
2023-05-18T11:41:36.721Z,99260.12
2023-05-18T11:44:09.935Z,99262.96
2023-05-18T11:46:40.168Z,99263.20
2023-05-18T11:49:08.998Z,99260.79
2023-05-18T11:52:26.599Z,99262.25
2023-05-18T11:54:55.692Z,99268.04
2023-05-18T11:57:27.577Z,99267.16
2023-05-18T11:59:57.402Z,99267.65
2023-05-18T12:02:27.630Z,99270.20
2023-05-18T12:05:00.254Z,99267.51
2023-05-18T12:07:30.657Z,99274.64
2023-05-18T12:10:07.676Z,99274.48
2023-05-18T12:12:36.474Z,99274.05
2023-05-18T12:15:06.958Z,99274.81
2023-05-18T12:17:43.133Z,99278.27
2023-05-18T12:20:13.496Z,99273.54
2023-05-18T12:22:55.122Z,99275.98
2023-05-18T12:25:26.961Z,99270.77
2023-05-18T12:27:56.992Z,99279.92
2023-05-18T12:30:35.199Z,99281.76
2023-05-18T12:33:04.457Z,99277.56
2023-05-18T12:35:33.590Z,99278.41
2023-05-18T12:38:02.638Z,99282.51
2023-05-18T12:40:49.058Z,99283.31
2023-05-18T12:43:17.790Z,99278.57
2023-05-18T12:45:45.868Z,99278.29
2023-05-18T12:48:15.418Z,99275.64
2023-05-18T12:50:48.041Z,99281.83
2023-05-18T12:53:17.681Z,99282.33
2023-05-18T12:55:45.689Z,99281.05
2023-05-18T12:58:19.361Z,99279.44
2023-05-18T13:00:48.847Z,99282.48
2023-05-18T13:03:24.468Z,99278.77
2023-05-18T13:06:05.092Z,99282.48
2023-05-18T13:08:33.591Z,99282.63
2023-05-18T13:11:12.766Z,99287.36
2023-05-18T13:14:03.844Z,99285.18
2023-05-18T13:16:40.109Z,99284.96
2023-05-18T13:19:10.195Z,99285.86
2023-05-18T13:21:39.560Z,99284.98
2023-05-18T13:24:07.740Z,99282.62
2023-05-18T13:26:35.816Z,99281.17
2023-05-18T13:29:03.683Z,99282.13
2023-05-18T13:31:31.682Z,99282.17
2023-05-18T13:33:59.843Z,99277.86
2023-05-18T13:36:30.005Z,99282.59
2023-05-18T13:38:58.340Z,99279.39
2023-05-18T13:41:26.705Z,99279.47
2023-05-18T13:43:54.666Z,99281.09
2023-05-18T13:46:22.741Z,99279.92
2023-05-18T13:48:50.657Z,99280.55
2023-05-18T13:51:18.648Z,99277.58
2023-05-18T13:53:46.656Z,99281.79
2023-05-18T13:56:14.745Z,99279.84
2023-05-18T13:58:43.746Z,99275.36
2023-05-18T14:01:13.829Z,99279.03
2023-05-18T14:03:42.293Z,99279.66
2023-05-18T14:06:10.578Z,99276.86
2023-05-18T14:08:38.356Z,99279.84
2023-05-18T14:11:06.474Z,99276.61
2023-05-18T14:13:34.356Z,99277.02
2023-05-18T14:16:02.301Z,99276.86
2023-05-18T14:18:30.249Z,99272.98
2023-05-18T14:21:02.330Z,99269.79
2023-05-18T14:23:30.348Z,99273.57
2023-05-18T14:25:58.328Z,99273.40
2023-05-18T14:28:26.225Z,99275.80
2023-05-18T14:30:54.157Z,99269.21
2023-05-18T14:33:22.089Z,99269.82
2023-05-18T14:35:50.046Z,99272.97
2023-05-18T14:38:18.126Z,99266.20
2023-05-18T14:40:46.051Z,99270.36
2023-05-18T14:43:13.952Z,99267.08
2023-05-18T14:45:42.150Z,99266.62
2023-05-18T14:48:11.431Z,99269.26
2023-05-18T14:50:39.807Z,99268.16
2023-05-18T14:53:08.133Z,99273.90
2023-05-18T14:55:36.046Z,99272.54
2023-05-18T14:58:06.331Z,99275.52
2023-05-18T15:00:34.798Z,99275.48
2023-05-18T15:03:03.651Z,99274.05
2023-05-18T15:05:42.369Z,99274.27
2023-05-18T15:08:15.365Z,99271.73
2023-05-18T15:10:43.996Z,99271.73
2023-05-18T15:13:12.633Z,99270.80
2023-05-18T15:15:41.134Z,99276.15
2023-05-18T15:18:10.350Z,99277.04
2023-05-18T15:20:40.055Z,99279.98
2023-05-18T15:23:08.257Z,99278.59
2023-05-18T15:25:37.695Z,99277.40
2023-05-18T15:28:06.319Z,99281.67
2023-05-18T15:30:34.308Z,99281.81
2023-05-18T15:33:02.430Z,99283.65
2023-05-18T15:35:30.478Z,99286.27
2023-05-18T15:37:58.317Z,99289.95
2023-05-18T15:40:26.439Z,99287.08
2023-05-18T15:42:54.511Z,99288.41
2023-05-18T15:45:22.668Z,99287.27
2023-05-18T15:47:50.844Z,99288.13
2023-05-18T15:50:19.078Z,99288.06
2023-05-18T15:52:47.585Z,99288.11
2023-05-18T15:55:15.733Z,99288.84
2023-05-18T15:57:43.652Z,99285.30
2023-05-18T16:00:11.758Z,99290.17
2023-05-18T16:02:39.728Z,99289.52
2023-05-18T16:05:09.278Z,99290.48
2023-05-18T16:07:37.581Z,99292.19
2023-05-18T16:10:06.145Z,99294.75
2023-05-18T16:12:34.079Z,99296.70
2023-05-18T16:15:02.285Z,99298.79
2023-05-18T16:17:30.326Z,99300.85
2023-05-18T16:19:58.196Z,99301.02
2023-05-18T16:22:26.069Z,99296.65
2023-05-18T16:24:54.793Z,99303.06
2023-05-18T16:27:22.821Z,99299.95
2023-05-18T16:29:51.884Z,99301.29
2023-05-18T16:32:19.903Z,99305.48
2023-05-18T16:34:47.749Z,99304.52
2023-05-18T16:37:15.962Z,99308.26
2023-05-18T16:39:43.899Z,99308.14
2023-05-18T16:42:12.546Z,99309.81
2023-05-18T16:44:42.387Z,99308.76
2023-05-18T16:47:11.515Z,99305.71
2023-05-18T16:49:40.717Z,99315.90
2023-05-18T16:52:09.173Z,99310.60
2023-05-18T16:54:37.058Z,99311.02
2023-05-18T16:57:05.257Z,99314.42
2023-05-18T16:59:34.561Z,99315.70
2023-05-18T17:02:02.936Z,99319.09
2023-05-18T17:04:31.119Z,99324.36
2023-05-18T17:06:58.999Z,99322.23
2023-05-18T17:09:26.953Z,99322.62
2023-05-18T17:11:54.898Z,99321.89
2023-05-18T17:14:22.817Z,99321.65
2023-05-18T17:16:50.753Z,99320.33
2023-05-18T17:19:18.792Z,99313.84
2023-05-18T17:21:46.805Z,99318.88
2023-05-18T17:24:14.793Z,99319.11
2023-05-18T17:26:42.684Z,99317.65
2023-05-18T17:29:10.723Z,99319.04
2023-05-18T17:31:38.853Z,99323.20
2023-05-18T17:34:06.845Z,99321.38
2023-05-18T17:36:34.868Z,99320.73
2023-05-18T17:39:04.588Z,99321.96
2023-05-18T17:41:33.364Z,99320.34
2023-05-18T17:44:01.259Z,99316.92
2023-05-18T17:46:29.258Z,99317.44
2023-05-18T17:48:57.171Z,99312.75
2023-05-18T17:51:25.335Z,99319.31
2023-05-18T17:53:53.286Z,99318.63
2023-05-18T17:56:22.248Z,99316.13
2023-05-18T17:58:50.383Z,99315.42
2023-05-18T18:01:18.379Z,99323.42
2023-05-18T18:03:46.321Z,99323.59
2023-05-18T18:06:14.434Z,99322.88
2023-05-18T18:08:43.051Z,99322.91
2023-05-18T18:11:11.174Z,99322.90
2023-05-18T18:13:39.711Z,99322.05
2023-05-18T18:16:07.653Z,99321.90
2023-05-18T18:18:36.819Z,99320.15
2023-05-18T18:21:08.709Z,99320.06
2023-05-18T18:23:38.879Z,99317.73
2023-05-18T18:26:08.100Z,99320.45
2023-05-18T18:28:36.075Z,99314.13
2023-05-18T18:31:04.391Z,99319.48
2023-05-18T18:33:44.017Z,99319.77
2023-05-18T18:36:18.902Z,99316.64
2023-05-18T18:38:47.319Z,99320.38
2023-05-18T18:41:17.456Z,99319.54
2023-05-18T18:43:45.732Z,99323.83
2023-05-18T18:46:14.509Z,99323.33
2023-05-18T18:48:43.159Z,99327.86
2023-05-18T18:51:11.122Z,99322.47
2023-05-18T18:53:39.085Z,99324.79
2023-05-18T18:56:07.221Z,99329.13
2023-05-18T18:58:36.125Z,99331.29
2023-05-18T19:01:04.409Z,99331.28
2023-05-18T19:03:33.212Z,99330.79
2023-05-18T19:06:01.213Z,99330.29
2023-05-18T19:08:29.152Z,99330.71
2023-05-18T19:10:57.193Z,99329.58
2023-05-18T19:13:25.612Z,99332.06
2023-05-18T19:15:53.811Z,99334.37
2023-05-18T19:18:21.767Z,99330.98
2023-05-18T19:20:50.381Z,99329.12
2023-05-18T19:23:18.275Z,99330.14
2023-05-18T19:25:46.180Z,99328.40
2023-05-18T19:28:14.245Z,99331.89
2023-05-18T19:30:42.230Z,99331.40
2023-05-18T19:33:10.933Z,99331.46
2023-05-18T19:35:39.458Z,99331.42
2023-05-18T19:38:07.388Z,99334.04
2023-05-18T19:40:35.601Z,99334.58
2023-05-18T19:43:03.592Z,99333.88
2023-05-18T19:45:33.877Z,99331.15
2023-05-18T19:48:02.162Z,99329.48
2023-05-18T19:50:30.143Z,99328.86
2023-05-18T19:52:57.998Z,99334.58
2023-05-18T19:55:26.058Z,99331.08
2023-05-18T19:57:54.253Z,99334.40
2023-05-18T20:00:22.200Z,99335.00
2023-05-18T20:02:50.982Z,99336.14
2023-05-18T20:05:19.061Z,99337.45
2023-05-18T20:07:47.037Z,99337.00
2023-05-18T20:10:16.108Z,99340.27
2023-05-18T20:12:43.966Z,99337.71
2023-05-18T20:15:12.053Z,99343.95
2023-05-18T20:17:40.224Z,99343.31
2023-05-18T20:20:08.698Z,99341.95
2023-05-18T20:22:37.029Z,99345.95
2023-05-18T20:25:06.235Z,99344.94
2023-05-18T20:27:34.196Z,99346.88
2023-05-18T20:30:02.165Z,99350.62
2023-05-18T20:32:30.376Z,99348.17
2023-05-18T20:34:58.344Z,99346.89
2023-05-18T20:37:26.658Z,99346.90
2023-05-18T20:39:57.561Z,99347.02
2023-05-18T20:42:32.075Z,99341.83
2023-05-18T20:45:00.052Z,99345.86
2023-05-18T20:47:29.777Z,99345.59
2023-05-18T20:49:58.963Z,99347.95
2023-05-18T20:52:28.810Z,99345.95
2023-05-18T20:54:56.765Z,99347.12
2023-05-18T20:57:24.817Z,99348.23
2023-05-18T20:59:52.728Z,99350.92
2023-05-18T21:02:20.769Z,99351.11
2023-05-18T21:04:48.579Z,99353.27
2023-05-18T21:07:16.720Z,99351.52
2023-05-18T21:09:44.580Z,99349.97
2023-05-18T21:12:12.450Z,99352.95
2023-05-18T21:14:40.310Z,99351.02
2023-05-18T21:17:08.218Z,99346.45
2023-05-18T21:19:36.197Z,99346.02
2023-05-18T21:22:04.217Z,99353.19
2023-05-18T21:24:32.248Z,99346.56
2023-05-18T21:27:00.458Z,99344.98
2023-05-18T21:29:28.442Z,99350.98
2023-05-18T21:31:56.314Z,99345.95
2023-05-18T21:34:24.326Z,99346.75
2023-05-18T21:36:52.355Z,99344.08
2023-05-18T21:39:20.146Z,99343.61
2023-05-18T21:41:48.171Z,99346.48
2023-05-18T21:44:16.067Z,99352.94
2023-05-18T21:46:44.435Z,99352.13
2023-05-18T21:49:12.783Z,99351.20
2023-05-18T21:51:41.406Z,99350.02
2023-05-18T21:54:10.036Z,99355.94
2023-05-18T21:56:37.950Z,99351.95
2023-05-18T21:59:05.885Z,99353.61
2023-05-18T22:01:33.833Z,99354.11
2023-05-18T22:04:01.857Z,99352.73
2023-05-18T22:06:29.918Z,99355.10
2023-05-18T22:08:57.836Z,99352.39
2023-05-18T22:11:25.718Z,99347.86
2023-05-18T22:13:54.309Z,99350.83
2023-05-18T22:16:22.412Z,99345.07
2023-05-18T22:18:50.565Z,99342.82
2023-05-18T22:21:19.112Z,99347.38
2023-05-18T22:23:47.008Z,99348.20
2023-05-18T22:26:15.076Z,99344.18
2023-05-18T22:28:43.046Z,99345.88
2023-05-18T22:31:11.135Z,99348.64
2023-05-18T22:33:39.017Z,99348.73
2023-05-18T22:36:07.040Z,99346.39
2023-05-18T22:38:34.942Z,99349.30
2023-05-18T22:41:02.907Z,99345.29
2023-05-18T22:43:31.440Z,99342.15
2023-05-18T22:45:59.421Z,99340.52
2023-05-18T22:51:33.957Z,99335.05
2023-05-18T22:54:01.966Z,99339.63
2023-05-18T22:56:29.944Z,99336.65
2023-05-18T22:58:57.904Z,99337.89
2023-05-18T23:01:25.889Z,99335.59
2023-05-18T23:03:54.819Z,99333.85
2023-05-18T23:06:22.842Z,99332.22
2023-05-18T23:08:50.734Z,99333.36
2023-05-18T23:11:19.961Z,99336.30
2023-05-18T23:13:47.972Z,99333.44
2023-05-18T23:16:16.102Z,99332.95
2023-05-18T23:18:46.372Z,99335.70
2023-05-18T23:21:14.733Z,99340.71
2023-05-18T23:23:42.718Z,99336.11
2023-05-18T23:26:10.960Z,99337.81
2023-05-18T23:28:38.827Z,99340.80
2023-05-18T23:31:06.949Z,99333.42
2023-05-18T23:33:35.132Z,99331.36
2023-05-18T23:36:04.070Z,99330.84
2023-05-18T23:38:34.961Z,99327.64
2023-05-18T23:41:04.874Z,99329.58
2023-05-18T23:43:33.522Z,99329.58
2023-05-18T23:46:01.669Z,99325.88
2023-05-18T23:48:30.063Z,99327.69
2023-05-18T23:51:00.450Z,99322.63
2023-05-18T23:53:30.581Z,99324.02
2023-05-18T23:55:59.600Z,99325.88
2023-05-18T23:58:29.865Z,99324.56
